sensor_id;sensor_type;location;lat;lon;timestamp;pressure;altitude;pressure_sealevel;temperature;humidity
47809;BME280;33573;38.790;-77.084;2022-07-18T00:02:22;101199.60;;;31.69;28.58
47809;BME280;33573;38.790;-77.084;2022-07-18T00:04:50;101193.29;;;31.77;28.56
47809;BME280;33573;38.790;-77.084;2022-07-18T00:07:18;101197.01;;;31.68;28.62
47809;BME280;33573;38.790;-77.084;2022-07-18T00:09:46;101197.40;;;31.70;28.63
47809;BME280;33573;38.790;-77.084;2022-07-18T00:12:14;101210.34;;;31.92;28.63
47809;BME280;33573;38.790;-77.084;2022-07-18T00:14:42;101218.08;;;31.75;28.65
47809;BME280;33573;38.790;-77.084;2022-07-18T00:17:10;101220.04;;;31.53;28.82
47809;BME280;33573;38.790;-77.084;2022-07-18T00:19:39;101232.86;;;31.46;28.87
47809;BME280;33573;38.790;-77.084;2022-07-18T00:22:07;101246.53;;;31.21;28.88
47809;BME280;33573;38.790;-77.084;2022-07-18T00:24:35;101263.67;;;31.63;28.99
47809;BME280;33573;38.790;-77.084;2022-07-18T00:27:04;101265.92;;;31.54;28.93
47809;BME280;33573;38.790;-77.084;2022-07-18T00:29:32;101276.79;;;31.49;28.97
47809;BME280;33573;38.790;-77.084;2022-07-18T00:32:00;101272.30;;;31.53;28.94
47809;BME280;33573;38.790;-77.084;2022-07-18T00:34:28;101275.67;;;31.62;28.89
47809;BME280;33573;38.790;-77.084;2022-07-18T00:36:56;101276.51;;;31.89;28.73
47809;BME280;33573;38.790;-77.084;2022-07-18T00:39:24;101275.40;;;31.97;28.61
47809;BME280;33573;38.790;-77.084;2022-07-18T00:41:52;101270.62;;;32.05;28.45
47809;BME280;33573;38.790;-77.084;2022-07-18T00:44:23;101277.31;;;31.91;28.48
47809;BME280;33573;38.790;-77.084;2022-07-18T00:46:51;101297.15;;;31.79;28.51
47809;BME280;33573;38.790;-77.084;2022-07-18T00:49:19;101302.99;;;31.77;28.56
47809;BME280;33573;38.790;-77.084;2022-07-18T00:51:48;101301.73;;;31.74;28.61
47809;BME280;33573;38.790;-77.084;2022-07-18T00:54:16;101289.19;;;31.64;28.66
47809;BME280;33573;38.790;-77.084;2022-07-18T00:56:45;101271.41;;;31.74;28.66
47809;BME280;33573;38.790;-77.084;2022-07-18T00:59:13;101260.73;;;31.53;28.80
47809;BME280;33573;38.790;-77.084;2022-07-18T01:01:41;101246.54;;;31.48;28.84
47809;BME280;33573;38.790;-77.084;2022-07-18T01:04:11;101240.22;;;31.46;28.89
47809;BME280;33573;38.790;-77.084;2022-07-18T01:06:40;101247.63;;;31.41;28.94
47809;BME280;33573;38.790;-77.084;2022-07-18T01:09:08;101249.18;;;31.67;28.82
47809;BME280;33573;38.790;-77.084;2022-07-18T01:11:36;101231.90;;;31.60;28.83
47809;BME280;33573;38.790;-77.084;2022-07-18T01:14:05;101230.24;;;31.69;28.82
47809;BME280;33573;38.790;-77.084;2022-07-18T01:16:35;101240.92;;;31.61;28.85
47809;BME280;33573;38.790;-77.084;2022-07-18T01:19:03;101244.56;;;31.63;28.86
47809;BME280;33573;38.790;-77.084;2022-07-18T01:21:32;101247.87;;;31.46;29.01
47809;BME280;33573;38.790;-77.084;2022-07-18T01:23:59;101252.72;;;31.57;28.95
47809;BME280;33573;38.790;-77.084;2022-07-18T01:26:27;101257.04;;;31.63;28.93
47809;BME280;33573;38.790;-77.084;2022-07-18T01:28:55;101270.38;;;31.57;28.98
47809;BME280;33573;38.790;-77.084;2022-07-18T01:31:23;101279.15;;;31.73;28.92
47809;BME280;33573;38.790;-77.084;2022-07-18T01:33:54;101283.93;;;31.67;28.94
47809;BME280;33573;38.790;-77.084;2022-07-18T01:36:22;101289.23;;;31.81;28.82
47809;BME280;33573;38.790;-77.084;2022-07-18T01:38:50;101289.39;;;31.64;28.74
47809;BME280;33573;38.790;-77.084;2022-07-18T01:41:18;101290.96;;;31.51;28.73
47809;BME280;33573;38.790;-77.084;2022-07-18T01:43:46;101292.84;;;32.09;28.67
47809;BME280;33573;38.790;-77.084;2022-07-18T01:46:14;101296.25;;;31.59;28.75
47809;BME280;33573;38.790;-77.084;2022-07-18T01:48:42;101317.90;;;31.66;28.72
47809;BME280;33573;38.790;-77.084;2022-07-18T01:51:10;101328.97;;;31.95;28.64
47809;BME280;33573;38.790;-77.084;2022-07-18T01:53:38;101334.23;;;31.75;28.59
47809;BME280;33573;38.790;-77.084;2022-07-18T01:56:07;101333.43;;;31.75;28.62
47809;BME280;33573;38.790;-77.084;2022-07-18T01:58:35;101335.15;;;32.11;28.66
47809;BME280;33573;38.790;-77.084;2022-07-18T02:01:03;101330.94;;;31.73;28.63
47809;BME280;33573;38.790;-77.084;2022-07-18T02:03:31;101335.21;;;31.68;28.69
47809;BME280;33573;38.790;-77.084;2022-07-18T02:05:59;101328.76;;;31.78;28.64
47809;BME280;33573;38.790;-77.084;2022-07-18T02:08:27;101328.93;;;31.73;28.69
47809;BME280;33573;38.790;-77.084;2022-07-18T02:10:55;101319.60;;;31.72;28.73
47809;BME280;33573;38.790;-77.084;2022-07-18T02:13:23;101307.76;;;31.91;28.66
47809;BME280;33573;38.790;-77.084;2022-07-18T02:15:51;101313.33;;;32.05;28.53
47809;BME280;33573;38.790;-77.084;2022-07-18T02:18:19;101312.40;;;31.99;28.41
47809;BME280;33573;38.790;-77.084;2022-07-18T02:20:47;101318.56;;;31.89;28.22
47809;BME280;33573;38.790;-77.084;2022-07-18T02:23:15;101323.37;;;31.40;28.10
47809;BME280;33573;38.790;-77.084;2022-07-18T02:25:43;101325.29;;;31.84;27.80
47809;BME280;33573;38.790;-77.084;2022-07-18T02:28:11;101315.93;;;31.70;27.60
47809;BME280;33573;38.790;-77.084;2022-07-18T02:30:39;101312.05;;;31.86;27.47
47809;BME280;33573;38.790;-77.084;2022-07-18T02:33:07;101308.58;;;31.60;27.15
47809;BME280;33573;38.790;-77.084;2022-07-18T02:35:35;101302.50;;;31.73;27.00
47809;BME280;33573;38.790;-77.084;2022-07-18T02:38:03;101298.68;;;31.84;26.90
47809;BME280;33573;38.790;-77.084;2022-07-18T02:40:31;101289.40;;;31.71;26.91
47809;BME280;33573;38.790;-77.084;2022-07-18T02:42:59;101283.89;;;31.90;26.98
47809;BME280;33573;38.790;-77.084;2022-07-18T02:45:27;101278.79;;;31.51;27.00
47809;BME280;33573;38.790;-77.084;2022-07-18T02:47:55;101274.42;;;31.61;26.91
47809;BME280;33573;38.790;-77.084;2022-07-18T02:50:23;101271.90;;;31.64;26.77
47809;BME280;33573;38.790;-77.084;2022-07-18T02:52:51;101266.23;;;31.63;26.55
47809;BME280;33573;38.790;-77.084;2022-07-18T02:55:19;101268.10;;;31.56;26.38
47809;BME280;33573;38.790;-77.084;2022-07-18T02:57:47;101275.09;;;32.00;26.10
47809;BME280;33573;38.790;-77.084;2022-07-18T03:00:15;101275.95;;;31.84;26.05
47809;BME280;33573;38.790;-77.084;2022-07-18T03:02:44;101268.05;;;31.62;26.05
47809;BME280;33573;38.790;-77.084;2022-07-18T03:05:13;101269.28;;;31.61;26.03
47809;BME280;33573;38.790;-77.084;2022-07-18T03:07:41;101265.99;;;31.66;26.20
47809;BME280;33573;38.790;-77.084;2022-07-18T03:10:09;101259.89;;;31.35;26.20
47809;BME280;33573;38.790;-77.084;2022-07-18T03:12:37;101258.55;;;31.32;26.09
47809;BME280;33573;38.790;-77.084;2022-07-18T03:15:07;101263.53;;;31.66;26.02
47809;BME280;33573;38.790;-77.084;2022-07-18T03:17:34;101259.71;;;31.55;25.75
47809;BME280;33573;38.790;-77.084;2022-07-18T03:20:03;101264.45;;;31.63;25.67
47809;BME280;33573;38.790;-77.084;2022-07-18T03:22:31;101269.09;;;31.66;25.68
47809;BME280;33573;38.790;-77.084;2022-07-18T03:24:59;101263.51;;;31.64;25.72
47809;BME280;33573;38.790;-77.084;2022-07-18T03:27:27;101261.31;;;31.42;25.78
47809;BME280;33573;38.790;-77.084;2022-07-18T03:29:55;101263.23;;;31.62;25.81
47809;BME280;33573;38.790;-77.084;2022-07-18T03:32:23;101265.70;;;31.65;25.77
47809;BME280;33573;38.790;-77.084;2022-07-18T03:34:51;101268.15;;;31.58;25.63
47809;BME280;33573;38.790;-77.084;2022-07-18T03:37:19;101267.54;;;31.31;25.63
47809;BME280;33573;38.790;-77.084;2022-07-18T03:39:47;101267.90;;;31.42;25.46
47809;BME280;33573;38.790;-77.084;2022-07-18T03:42:15;101267.99;;;31.29;25.46
47809;BME280;33573;38.790;-77.084;2022-07-18T03:44:43;101261.59;;;31.42;25.49
47809;BME280;33573;38.790;-77.084;2022-07-18T03:47:11;101261.27;;;31.33;25.55
47809;BME280;33573;38.790;-77.084;2022-07-18T03:49:39;101266.15;;;31.33;25.63
47809;BME280;33573;38.790;-77.084;2022-07-18T03:52:07;101258.71;;;31.21;25.71
47809;BME280;33573;38.790;-77.084;2022-07-18T03:54:35;101260.16;;;31.36;25.63
47809;BME280;33573;38.790;-77.084;2022-07-18T03:57:03;101261.03;;;31.34;25.56
47809;BME280;33573;38.790;-77.084;2022-07-18T03:59:31;101261.40;;;31.42;25.35
47809;BME280;33573;38.790;-77.084;2022-07-18T04:01:59;101261.69;;;31.30;25.26
47809;BME280;33573;38.790;-77.084;2022-07-18T04:04:27;101267.53;;;31.36;25.20
47809;BME280;33573;38.790;-77.084;2022-07-18T04:06:55;101269.01;;;31.37;25.28
47809;BME280;33573;38.790;-77.084;2022-07-18T04:09:23;101269.52;;;31.09;25.35
47809;BME280;33573;38.790;-77.084;2022-07-18T04:11:51;101266.65;;;31.31;25.41
47809;BME280;33573;38.790;-77.084;2022-07-18T04:14:19;101263.68;;;31.33;25.44
47809;BME280;33573;38.790;-77.084;2022-07-18T04:16:47;101261.03;;;31.60;25.46
47809;BME280;33573;38.790;-77.084;2022-07-18T04:19:15;101258.51;;;31.28;25.44
47809;BME280;33573;38.790;-77.084;2022-07-18T04:21:44;101253.25;;;31.33;25.30
47809;BME280;33573;38.790;-77.084;2022-07-18T04:24:11;101250.81;;;31.28;25.21
47809;BME280;33573;38.790;-77.084;2022-07-18T04:26:39;101249.22;;;31.29;25.16
47809;BME280;33573;38.790;-77.084;2022-07-18T04:29:07;101250.43;;;31.24;25.21
47809;BME280;33573;38.790;-77.084;2022-07-18T04:31:35;101245.45;;;31.18;25.31
47809;BME280;33573;38.790;-77.084;2022-07-18T04:34:03;101248.11;;;30.96;25.33
47809;BME280;33573;38.790;-77.084;2022-07-18T04:36:31;101246.36;;;31.17;25.34
47809;BME280;33573;38.790;-77.084;2022-07-18T04:38:59;101242.95;;;31.11;25.44
47809;BME280;33573;38.790;-77.084;2022-07-18T04:41:27;101251.47;;;31.03;25.52
47809;BME280;33573;38.790;-77.084;2022-07-18T04:43:55;101258.76;;;31.08;25.56
47809;BME280;33573;38.790;-77.084;2022-07-18T04:46:23;101262.58;;;31.09;25.57
47809;BME280;33573;38.790;-77.084;2022-07-18T04:48:51;101266.51;;;30.80;25.63
47809;BME280;33573;38.790;-77.084;2022-07-18T04:51:19;101265.79;;;31.26;25.51
47809;BME280;33573;38.790;-77.084;2022-07-18T04:53:47;101263.55;;;31.29;25.37
47809;BME280;33573;38.790;-77.084;2022-07-18T04:56:16;101268.78;;;31.34;25.31
47809;BME280;33573;38.790;-77.084;2022-07-18T04:58:43;101264.67;;;31.20;25.28
47809;BME280;33573;38.790;-77.084;2022-07-18T05:01:11;101261.68;;;31.17;25.30
47809;BME280;33573;38.790;-77.084;2022-07-18T05:03:39;101259.13;;;31.08;25.34
47809;BME280;33573;38.790;-77.084;2022-07-18T05:06:07;101256.56;;;31.06;25.39
47809;BME280;33573;38.790;-77.084;2022-07-18T05:08:35;101254.25;;;31.36;25.41
47809;BME280;33573;38.790;-77.084;2022-07-18T05:11:03;101249.76;;;31.05;25.46
47809;BME280;33573;38.790;-77.084;2022-07-18T05:13:31;101249.58;;;31.08;25.46
47809;BME280;33573;38.790;-77.084;2022-07-18T05:15:59;101252.48;;;31.14;25.47
47809;BME280;33573;38.790;-77.084;2022-07-18T05:18:27;101249.84;;;31.07;25.54
47809;BME280;33573;38.790;-77.084;2022-07-18T05:20:55;101248.32;;;31.15;25.50
47809;BME280;33573;38.790;-77.084;2022-07-18T05:23:23;101244.47;;;31.01;25.60
47809;BME280;33573;38.790;-77.084;2022-07-18T05:25:51;101241.65;;;31.11;25.64
47809;BME280;33573;38.790;-77.084;2022-07-18T05:28:19;101235.21;;;31.07;25.65
47809;BME280;33573;38.790;-77.084;2022-07-18T05:30:47;101231.73;;;31.07;25.67
47809;BME280;33573;38.790;-77.084;2022-07-18T05:33:15;101233.38;;;31.08;25.68
47809;BME280;33573;38.790;-77.084;2022-07-18T05:35:43;101232.94;;;31.13;25.67
47809;BME280;33573;38.790;-77.084;2022-07-18T05:38:11;101235.00;;;31.04;25.72
47809;BME280;33573;38.790;-77.084;2022-07-18T05:40:39;101228.86;;;31.40;25.72
47809;BME280;33573;38.790;-77.084;2022-07-18T05:43:07;101224.86;;;31.05;25.76
47809;BME280;33573;38.790;-77.084;2022-07-18T05:45:36;101223.92;;;31.10;25.80
47809;BME280;33573;38.790;-77.084;2022-07-18T05:48:05;101221.02;;;31.07;25.81
47809;BME280;33573;38.790;-77.084;2022-07-18T05:50:32;101224.69;;;31.13;25.82
47809;BME280;33573;38.790;-77.084;2022-07-18T05:53:00;101228.51;;;31.36;25.85
47809;BME280;33573;38.790;-77.084;2022-07-18T05:55:28;101226.85;;;31.10;25.88
47809;BME280;33573;38.790;-77.084;2022-07-18T05:57:56;101220.74;;;31.10;25.89
47809;BME280;33573;38.790;-77.084;2022-07-18T06:00:24;101214.72;;;31.15;25.87
47809;BME280;33573;38.790;-77.084;2022-07-18T06:02:52;101209.96;;;30.96;25.93
47809;BME280;33573;38.790;-77.084;2022-07-18T06:05:21;101205.73;;;31.16;25.89
47809;BME280;33573;38.790;-77.084;2022-07-18T06:07:50;101201.31;;;31.11;25.92
47809;BME280;33573;38.790;-77.084;2022-07-18T06:10:17;101194.93;;;31.07;25.96
47809;BME280;33573;38.790;-77.084;2022-07-18T06:12:45;101188.01;;;31.13;25.95
47809;BME280;33573;38.790;-77.084;2022-07-18T06:15:14;101185.42;;;30.96;26.05
47809;BME280;33573;38.790;-77.084;2022-07-18T06:17:42;101184.01;;;31.05;26.03
47809;BME280;33573;38.790;-77.084;2022-07-18T06:20:10;101174.84;;;31.01;26.07
47809;BME280;33573;38.790;-77.084;2022-07-18T06:22:38;101172.01;;;30.97;26.12
47809;BME280;33573;38.790;-77.084;2022-07-18T06:25:07;101168.01;;;30.68;26.17
47809;BME280;33573;38.790;-77.084;2022-07-18T06:27:35;101165.45;;;30.98;26.16
47809;BME280;33573;38.790;-77.084;2022-07-18T06:30:03;101168.60;;;31.12;26.10
47809;BME280;33573;38.790;-77.084;2022-07-18T06:32:31;101165.10;;;31.08;26.13
47809;BME280;33573;38.790;-77.084;2022-07-18T06:34:59;101160.06;;;31.41;26.09
47809;BME280;33573;38.790;-77.084;2022-07-18T06:37:27;101152.43;;;31.15;26.11
47809;BME280;33573;38.790;-77.084;2022-07-18T06:39:55;101147.25;;;31.11;26.12
47809;BME280;33573;38.790;-77.084;2022-07-18T06:42:23;101142.47;;;31.08;26.17
47809;BME280;33573;38.790;-77.084;2022-07-18T06:44:51;101140.09;;;30.85;26.22
47809;BME280;33573;38.790;-77.084;2022-07-18T06:47:19;101135.21;;;31.14;26.19
47809;BME280;33573;38.790;-77.084;2022-07-18T06:49:47;101130.74;;;31.14;26.20
47809;BME280;33573;38.790;-77.084;2022-07-18T06:52:15;101123.24;;;31.17;26.18
47809;BME280;33573;38.790;-77.084;2022-07-18T06:54:43;101117.75;;;31.08;26.24
47809;BME280;33573;38.790;-77.084;2022-07-18T06:57:11;101115.76;;;31.13;26.23
47809;BME280;33573;38.790;-77.084;2022-07-18T06:59:39;101114.01;;;31.10;26.28
47809;BME280;33573;38.790;-77.084;2022-07-18T07:02:07;101115.85;;;31.11;26.26
47809;BME280;33573;38.790;-77.084;2022-07-18T07:04:35;101117.00;;;31.08;26.30
47809;BME280;33573;38.790;-77.084;2022-07-18T07:07:03;101120.97;;;31.01;26.35
47809;BME280;33573;38.790;-77.084;2022-07-18T07:09:31;101121.04;;;31.06;26.38
47809;BME280;33573;38.790;-77.084;2022-07-18T07:11:59;101122.83;;;31.00;26.40
47809;BME280;33573;38.790;-77.084;2022-07-18T07:14:27;101123.51;;;31.08;26.41
47809;BME280;33573;38.790;-77.084;2022-07-18T07:16:56;101121.89;;;31.08;26.43
47809;BME280;33573;38.790;-77.084;2022-07-18T07:19:23;101113.14;;;30.99;26.45
47809;BME280;33573;38.790;-77.084;2022-07-18T07:21:51;101115.97;;;31.26;26.47
47809;BME280;33573;38.790;-77.084;2022-07-18T07:24:19;101117.54;;;31.11;26.43
47809;BME280;33573;38.790;-77.084;2022-07-18T07:26:48;101117.59;;;31.02;26.48
47809;BME280;33573;38.790;-77.084;2022-07-18T07:29:15;101121.65;;;31.32;26.49
47809;BME280;33573;38.790;-77.084;2022-07-18T07:31:43;101119.23;;;31.37;26.45
47809;BME280;33573;38.790;-77.084;2022-07-18T07:34:11;101119.42;;;31.32;26.49
47809;BME280;33573;38.790;-77.084;2022-07-18T07:36:39;101108.74;;;31.01;26.52
47809;BME280;33573;38.790;-77.084;2022-07-18T07:39:07;101101.91;;;30.97;26.55
47809;BME280;33573;38.790;-77.084;2022-07-18T07:41:35;101103.55;;;31.01;26.56
47809;BME280;33573;38.790;-77.084;2022-07-18T07:44:04;101105.59;;;31.00;26.57
47809;BME280;33573;38.790;-77.084;2022-07-18T07:46:31;101106.90;;;31.11;26.53
47809;BME280;33573;38.790;-77.084;2022-07-18T07:48:59;101110.79;;;31.11;26.51
47809;BME280;33573;38.790;-77.084;2022-07-18T07:51:27;101117.95;;;31.08;26.56
47809;BME280;33573;38.790;-77.084;2022-07-18T07:53:55;101114.63;;;31.04;26.61
47809;BME280;33573;38.790;-77.084;2022-07-18T07:56:23;101115.61;;;31.52;26.61
47809;BME280;33573;38.790;-77.084;2022-07-18T07:58:51;101116.66;;;31.07;26.62
47809;BME280;33573;38.790;-77.084;2022-07-18T08:01:19;101116.86;;;30.98;26.66
47809;BME280;33573;38.790;-77.084;2022-07-18T08:03:47;101115.86;;;31.02;26.66
47809;BME280;33573;38.790;-77.084;2022-07-18T08:06:15;101109.95;;;31.08;26.63
47809;BME280;33573;38.790;-77.084;2022-07-18T08:08:43;101110.22;;;31.03;26.65
47809;BME280;33573;38.790;-77.084;2022-07-18T08:11:11;101105.54;;;31.06;26.65
47809;BME280;33573;38.790;-77.084;2022-07-18T08:13:39;101103.22;;;31.08;26.63
47809;BME280;33573;38.790;-77.084;2022-07-18T08:16:07;101099.76;;;31.05;26.66
47809;BME280;33573;38.790;-77.084;2022-07-18T08:18:35;101096.96;;;31.22;26.74
47809;BME280;33573;38.790;-77.084;2022-07-18T08:21:03;101095.60;;;30.96;26.76
47809;BME280;33573;38.790;-77.084;2022-07-18T08:23:31;101096.85;;;30.99;26.75
47809;BME280;33573;38.790;-77.084;2022-07-18T08:25:59;101100.29;;;30.94;26.79
47809;BME280;33573;38.790;-77.084;2022-07-18T08:28:27;101099.10;;;31.13;26.70
47809;BME280;33573;38.790;-77.084;2022-07-18T08:30:55;101099.50;;;31.08;26.73
47809;BME280;33573;38.790;-77.084;2022-07-18T08:33:23;101094.68;;;31.35;26.74
47809;BME280;33573;38.790;-77.084;2022-07-18T08:35:51;101099.05;;;31.34;26.75
47809;BME280;33573;38.790;-77.084;2022-07-18T08:38:19;101097.59;;;31.17;26.72
47809;BME280;33573;38.790;-77.084;2022-07-18T08:40:48;101096.28;;;31.10;26.77
47809;BME280;33573;38.790;-77.084;2022-07-18T08:43:19;101091.35;;;30.73;26.83
47809;BME280;33573;38.790;-77.084;2022-07-18T08:45:47;101091.77;;;31.09;26.81
47809;BME280;33573;38.790;-77.084;2022-07-18T08:48:16;101102.36;;;31.01;26.86
47809;BME280;33573;38.790;-77.084;2022-07-18T08:50:45;101103.67;;;30.91;26.92
47809;BME280;33573;38.790;-77.084;2022-07-18T08:53:14;101100.57;;;31.09;26.89
47809;BME280;33573;38.790;-77.084;2022-07-18T08:55:42;101102.52;;;31.09;26.92
47809;BME280;33573;38.790;-77.084;2022-07-18T08:58:10;101101.31;;;31.15;26.86
47809;BME280;33573;38.790;-77.084;2022-07-18T09:00:38;101102.94;;;31.07;26.92
47809;BME280;33573;38.790;-77.084;2022-07-18T09:03:06;101103.15;;;31.08;26.93
47809;BME280;33573;38.790;-77.084;2022-07-18T09:05:34;101104.82;;;31.07;26.95
47809;BME280;33573;38.790;-77.084;2022-07-18T09:08:12;101108.16;;;30.97;26.97
47809;BME280;33573;38.790;-77.084;2022-07-18T09:10:48;101112.15;;;31.10;26.98
47809;BME280;33573;38.790;-77.084;2022-07-18T09:13:18;101116.42;;;31.08;26.98
47809;BME280;33573;38.790;-77.084;2022-07-18T09:15:59;101115.97;;;31.04;27.03
47809;BME280;33573;38.790;-77.084;2022-07-18T09:18:28;101123.16;;;31.08;27.04
47809;BME280;33573;38.790;-77.084;2022-07-18T09:20:58;101128.95;;;30.99;27.12
47809;BME280;33573;38.790;-77.084;2022-07-18T09:23:28;101131.01;;;31.13;27.04
47809;BME280;33573;38.790;-77.084;2022-07-18T09:25:57;101132.23;;;31.17;27.04
47809;BME280;33573;38.790;-77.084;2022-07-18T09:28:25;101130.63;;;30.98;27.05
47809;BME280;33573;38.790;-77.084;2022-07-18T09:30:53;101133.43;;;31.19;27.06
47809;BME280;33573;38.790;-77.084;2022-07-18T09:33:21;101131.75;;;31.08;27.12
47809;BME280;33573;38.790;-77.084;2022-07-18T09:35:52;101132.26;;;31.13;27.12
47809;BME280;33573;38.790;-77.084;2022-07-18T09:38:22;101131.93;;;31.43;27.13
47809;BME280;33573;38.790;-77.084;2022-07-18T09:40:51;101127.83;;;31.21;27.13
47809;BME280;33573;38.790;-77.084;2022-07-18T09:43:22;101120.09;;;31.16;27.16
47809;BME280;33573;38.790;-77.084;2022-07-18T09:45:54;101110.90;;;31.14;27.18
47809;BME280;33573;38.790;-77.084;2022-07-18T09:48:27;101112.27;;;31.11;27.20
47809;BME280;33573;38.790;-77.084;2022-07-18T09:50:57;101109.28;;;31.09;27.21
47809;BME280;33573;38.790;-77.084;2022-07-18T09:53:27;101107.87;;;31.17;27.21
47809;BME280;33573;38.790;-77.084;2022-07-18T09:55:58;101107.25;;;30.91;27.23
47809;BME280;33573;38.790;-77.084;2022-07-18T09:58:27;101109.78;;;31.10;27.28
47809;BME280;33573;38.790;-77.084;2022-07-18T10:00:56;101111.23;;;31.16;27.27
47809;BME280;33573;38.790;-77.084;2022-07-18T10:03:25;101113.50;;;31.15;27.27
47809;BME280;33573;38.790;-77.084;2022-07-18T10:05:55;101113.61;;;31.12;27.31
47809;BME280;33573;38.790;-77.084;2022-07-18T10:08:26;101116.71;;;31.16;27.30
47809;BME280;33573;38.790;-77.084;2022-07-18T10:10:55;101120.26;;;31.18;27.32
47809;BME280;33573;38.790;-77.084;2022-07-18T10:13:24;101122.24;;;31.17;27.32
47809;BME280;33573;38.790;-77.084;2022-07-18T10:15:52;101124.52;;;31.13;27.35
47809;BME280;33573;38.790;-77.084;2022-07-18T10:18:21;101128.66;;;31.12;27.39
47809;BME280;33573;38.790;-77.084;2022-07-18T10:20:54;101130.33;;;31.02;27.45
47809;BME280;33573;38.790;-77.084;2022-07-18T10:23:25;101124.84;;;31.42;27.43
47809;BME280;33573;38.790;-77.084;2022-07-18T10:26:12;101123.77;;;31.12;27.48
47809;BME280;33573;38.790;-77.084;2022-07-18T10:30:53;101111.14;;;31.60;27.51
47809;BME280;33573;38.790;-77.084;2022-07-18T10:33:54;101107.38;;;31.22;27.53
47809;BME280;33573;38.790;-77.084;2022-07-18T10:36:37;101100.07;;;31.31;27.50
47809;BME280;33573;38.790;-77.084;2022-07-18T10:39:07;101098.14;;;31.30;27.52
47809;BME280;33573;38.790;-77.084;2022-07-18T10:42:13;101096.47;;;31.27;27.56
47809;BME280;33573;38.790;-77.084;2022-07-18T10:44:41;101091.90;;;31.31;27.58
47809;BME280;33573;38.790;-77.084;2022-07-18T10:47:10;101092.35;;;31.29;27.61
47809;BME280;33573;38.790;-77.084;2022-07-18T10:50:08;101098.44;;;31.29;27.65
47809;BME280;33573;38.790;-77.084;2022-07-18T10:53:08;101107.09;;;31.21;27.69
47809;BME280;33573;38.790;-77.084;2022-07-18T10:55:36;101106.06;;;31.30;27.68
47809;BME280;33573;38.790;-77.084;2022-07-18T10:58:21;101103.21;;;31.26;27.71
47809;BME280;33573;38.790;-77.084;2022-07-18T11:00:52;101108.01;;;31.55;27.74
47809;BME280;33573;38.790;-77.084;2022-07-18T11:03:27;101110.14;;;31.20;27.80
47809;BME280;33573;38.790;-77.084;2022-07-18T11:05:56;101110.13;;;31.21;27.81
47809;BME280;33573;38.790;-77.084;2022-07-18T11:08:24;101110.93;;;31.17;27.87
47809;BME280;33573;38.790;-77.084;2022-07-18T11:11:09;101114.10;;;31.27;27.84
47809;BME280;33573;38.790;-77.084;2022-07-18T11:13:39;101110.80;;;31.00;28.04
47809;BME280;33573;38.790;-77.084;2022-07-18T11:16:10;101116.82;;;30.80;28.13
47809;BME280;33573;38.790;-77.084;2022-07-18T11:20:22;101125.09;;;31.35;28.13
47809;BME280;33573;38.790;-77.084;2022-07-18T11:22:50;101123.67;;;31.00;28.29
47809;BME280;33573;38.790;-77.084;2022-07-18T11:25:18;101124.48;;;30.50;28.48
47809;BME280;33573;38.790;-77.084;2022-07-18T11:27:46;101125.92;;;30.34;28.94
47809;BME280;33573;38.790;-77.084;2022-07-18T11:30:17;101123.78;;;30.20;29.27
47809;BME280;33573;38.790;-77.084;2022-07-18T11:32:45;101122.74;;;29.84;29.69
47809;BME280;33573;38.790;-77.084;2022-07-18T11:35:13;101119.71;;;30.32;29.63
47809;BME280;33573;38.790;-77.084;2022-07-18T11:37:46;101119.63;;;30.07;29.73
47809;BME280;33573;38.790;-77.084;2022-07-18T11:40:15;101123.25;;;29.60;30.32
47809;BME280;33573;38.790;-77.084;2022-07-18T11:42:43;101123.06;;;30.10;30.49
47809;BME280;33573;38.790;-77.084;2022-07-18T11:45:12;101130.20;;;29.82;30.38
47809;BME280;33573;38.790;-77.084;2022-07-18T11:47:46;101127.26;;;30.25;30.17
47809;BME280;33573;38.790;-77.084;2022-07-18T11:50:15;101125.25;;;29.90;30.33
47809;BME280;33573;38.790;-77.084;2022-07-18T11:52:44;101128.67;;;29.75;30.60
47809;BME280;33573;38.790;-77.084;2022-07-18T11:55:13;101130.52;;;29.93;30.44
47809;BME280;33573;38.790;-77.084;2022-07-18T11:57:41;101126.71;;;30.18;30.24
47809;BME280;33573;38.790;-77.084;2022-07-18T12:00:19;101133.05;;;30.17;30.21
47809;BME280;33573;38.790;-77.084;2022-07-18T12:03:20;101132.84;;;30.35;30.17
47809;BME280;33573;38.790;-77.084;2022-07-18T12:05:50;101132.95;;;30.27;30.01
47809;BME280;33573;38.790;-77.084;2022-07-18T12:08:36;101135.06;;;30.36;29.98
47809;BME280;33573;38.790;-77.084;2022-07-18T12:11:07;101135.20;;;30.75;29.88
47809;BME280;33573;38.790;-77.084;2022-07-18T12:13:41;101129.30;;;30.15;30.10
47809;BME280;33573;38.790;-77.084;2022-07-18T12:16:20;101127.08;;;30.11;30.11
47809;BME280;33573;38.790;-77.084;2022-07-18T12:18:49;101125.08;;;30.32;30.23
47809;BME280;33573;38.790;-77.084;2022-07-18T12:21:17;101123.58;;;30.26;30.08
47809;BME280;33573;38.790;-77.084;2022-07-18T12:23:45;101121.92;;;30.50;30.08
47809;BME280;33573;38.790;-77.084;2022-07-18T12:26:27;101124.55;;;30.10;30.09
47809;BME280;33573;38.790;-77.084;2022-07-18T12:29:10;101128.35;;;30.11;30.12
47809;BME280;33573;38.790;-77.084;2022-07-18T12:31:40;101132.43;;;30.46;30.09
47809;BME280;33573;38.790;-77.084;2022-07-18T12:34:10;101131.96;;;30.26;30.06
47809;BME280;33573;38.790;-77.084;2022-07-18T12:36:53;101129.78;;;30.34;30.02
47809;BME280;33573;38.790;-77.084;2022-07-18T12:39:29;101122.26;;;30.46;29.98
47809;BME280;33573;38.790;-77.084;2022-07-18T12:41:59;101125.80;;;30.63;30.06
47809;BME280;33573;38.790;-77.084;2022-07-18T12:44:28;101119.86;;;30.55;29.94
47809;BME280;33573;38.790;-77.084;2022-07-18T12:46:56;101114.92;;;30.56;29.99